Time;durP1;ratioP1;P1;durP2;ratioP2;P2;SDS_P1;SDS_P2;PMS_P1;PMS_P2;Temp;Humidity;BMP_temperature;BMP_pressure;BME280_temperature;BME280_humidity;BME280_pressure;Samples;Min_cycle;Max_cycle;Signal;HPM_P1;HPM_P2
2022/07/01 00:02:01;;;;;;;11.93;9.15;;;;;;;22.91;67.09;100670.52;1737238;81;21142;-48
2022/07/01 00:04:28;;;;;;;11.73;9.00;;;;;;;22.87;66.93;100673.30;1759393;81;21075;-48
2022/07/01 00:07:48;;;;;;;9.60;8.60;;;;;;;22.85;66.81;100675.35;1805492;79;22758;-47
2022/07/01 00:10:14;;;;;;;11.12;8.55;;;;;;;22.82;66.58;100673.06;1785018;80;21133;-47
2022/07/01 00:12:43;;;;;;;10.48;9.38;;;;;;;22.84;66.59;100678.23;1784249;80;20982;-46
2022/07/01 00:15:10;;;;;;;13.55;9.63;;;;;;;22.86;66.47;100680.20;1765504;80;21038;-47
2022/07/01 00:17:36;;;;;;;10.90;8.20;;;;;;;22.84;66.40;100675.55;1759122;80;21486;-46
2022/07/01 00:20:05;;;;;;;10.30;9.15;;;;;;;22.76;66.47;100673.34;1760756;80;21569;-47
2022/07/01 00:22:31;;;;;;;9.63;8.43;;;;;;;22.70;66.69;100678.66;1722681;81;21639;-46
2022/07/01 00:24:58;;;;;;;16.32;9.70;;;;;;;22.64;66.72;100672.20;1722021;82;22237;-46
2022/07/01 00:27:25;;;;;;;12.78;9.53;;;;;;;22.56;66.85;100673.20;1710481;82;21010;-47
2022/07/01 00:29:52;;;;;;;11.22;9.75;;;;;;;22.53;66.72;100675.44;1708828;82;21110;-46
2022/07/01 00:32:18;;;;;;;10.50;9.30;;;;;;;22.53;66.33;100672.23;1706073;82;21091;-49
2022/07/01 00:34:44;;;;;;;11.35;9.50;;;;;;;22.51;65.97;100679.66;1723749;82;21097;-46
2022/07/01 00:37:11;;;;;;;11.03;9.45;;;;;;;22.51;66.11;100681.48;1726320;82;21143;-47
2022/07/01 00:39:37;;;;;;;11.95;9.85;;;;;;;22.48;66.20;100677.84;1723382;82;21101;-47
2022/07/01 00:42:05;;;;;;;11.12;9.95;;;;;;;22.51;66.18;100682.83;1712238;82;21015;-47
2022/07/01 00:44:31;;;;;;;11.38;10.15;;;;;;;22.48;66.30;100681.87;1709624;82;21073;-47
2022/07/01 00:47:03;;;;;;;14.63;9.55;;;;;;;22.45;66.48;100679.08;1722339;82;21055;-46
2022/07/01 00:49:30;;;;;;;18.27;9.03;;;;;;;22.43;66.54;100685.16;1719496;82;21761;-48
2022/07/01 00:51:57;;;;;;;11.10;9.23;;;;;;;22.44;66.65;100675.58;1729812;82;21057;-47
2022/07/01 00:54:24;;;;;;;12.88;10.35;;;;;;;22.47;66.66;100680.23;1710805;82;21024;-47
2022/07/01 00:56:51;;;;;;;11.22;9.43;;;;;;;22.43;66.82;100680.61;1705029;82;21054;-47
2022/07/01 00:59:17;;;;;;;12.15;9.28;;;;;;;22.39;67.05;100682.03;1714700;82;21085;-48
2022/07/01 01:01:44;;;;;;;13.43;9.93;;;;;;;22.35;67.19;100690.65;1726303;82;21748;-48
2022/07/01 01:04:10;;;;;;;9.98;8.98;;;;;;;22.33;67.30;100692.18;1715062;82;21580;-47
2022/07/01 01:06:37;;;;;;;11.03;9.43;;;;;;;22.28;67.33;100687.05;1714890;82;21000;-48
2022/07/01 01:09:03;;;;;;;11.68;9.30;;;;;;;22.29;67.30;100682.03;1699466;84;21078;-47
2022/07/01 01:11:31;;;;;;;9.88;8.83;;;;;;;22.34;67.11;100686.30;1700850;84;21056;-47
2022/07/01 01:13:58;;;;;;;11.18;9.78;;;;;;;22.38;67.09;100681.70;1693847;84;21113;-48
2022/07/01 01:16:25;;;;;;;11.30;10.10;;;;;;;22.37;66.93;100685.92;1742675;81;21089;-47
2022/07/01 01:18:52;;;;;;;12.35;10.23;;;;;;;22.30;66.86;100685.86;1748722;81;21549;-48
2022/07/01 01:21:19;;;;;;;14.55;9.73;;;;;;;22.25;67.00;100684.23;1750231;82;21526;-47
2022/07/01 01:23:45;;;;;;;12.23;9.50;;;;;;;22.17;67.13;100682.50;1711330;82;21101;-48
2022/07/01 01:26:21;;;;;;;12.53;10.03;;;;;;;22.13;67.16;100672.38;1746224;82;22070;-48
2022/07/01 01:28:48;;;;;;;;;;;;;;;22.15;67.02;100675.69;1747247;82;21050;-48
2022/07/01 01:31:15;;;;;;;11.57;9.90;;;;;;;22.12;66.99;100675.55;1749432;82;20145;-48
2022/07/01 01:33:42;;;;;;;10.70;9.58;;;;;;;22.09;67.04;100675.96;1740992;81;21026;-48
2022/07/01 01:36:08;;;;;;;11.88;9.68;;;;;;;22.04;67.27;100671.17;1749786;81;21046;-48
2022/07/01 01:38:36;;;;;;;10.75;9.40;;;;;;;21.98;67.44;100674.59;1745069;82;21126;-49
2022/07/01 01:41:03;;;;;;;11.18;9.20;;;;;;;21.93;67.78;100671.66;1739331;82;21050;-48
2022/07/01 01:43:30;;;;;;;10.90;9.80;;;;;;;21.87;67.99;100681.79;1745786;82;21602;-48
2022/07/01 01:45:56;;;;;;;14.07;10.03;;;;;;;21.83;68.11;100687.22;1749124;81;21054;-48
2022/07/01 01:48:23;;;;;;;11.08;8.83;;;;;;;21.78;68.09;100690.98;1747460;81;21093;-49
2022/07/01 01:50:49;;;;;;;11.88;9.33;;;;;;;21.80;67.89;100694.29;1738304;80;21107;-48
2022/07/01 01:53:17;;;;;;;10.38;9.28;;;;;;;21.81;67.70;100690.09;1749101;82;21089;-50
2022/07/01 01:55:43;;;;;;;10.93;9.13;;;;;;;21.85;67.70;100694.55;1744129;82;21051;-48
2022/07/01 01:58:09;;;;;;;10.40;8.73;;;;;;;21.85;67.59;100696.71;1741998;81;21126;-48
2022/07/01 02:00:38;;;;;;;10.45;8.78;;;;;;;21.89;67.40;100702.03;1749312;82;21011;-48
2022/07/01 02:03:04;;;;;;;11.53;9.78;;;;;;;21.89;67.25;100701.20;1743177;81;22058;-48
2022/07/01 02:05:31;;;;;;;12.07;10.28;;;;;;;21.84;67.01;100701.77;1748550;81;21532;-48
2022/07/01 02:07:58;;;;;;;12.18;9.80;;;;;;;21.83;66.95;100705.97;1759263;79;21111;-49
2022/07/01 02:10:25;;;;;;;13.18;9.80;;;;;;;21.82;67.03;100697.60;1764660;80;21078;-48
2022/07/01 02:12:51;;;;;;;12.03;10.10;;;;;;;21.84;66.92;100707.64;1761361;80;21585;-48
2022/07/01 02:15:18;;;;;;;10.88;9.13;;;;;;;21.87;67.04;100703.22;1760440;80;21125;-48
2022/07/01 02:17:45;;;;;;;11.90;9.25;;;;;;;21.92;66.94;100704.00;1760554;79;21000;-48
2022/07/01 02:20:17;;;;;;;12.05;9.20;;;;;;;21.95;66.85;100701.77;1769364;80;21125;-49
2022/07/01 02:22:42;;;;;;;10.88;9.60;;;;;;;21.98;67.05;100704.59;1775559;80;21100;-48
2022/07/01 02:25:09;;;;;;;13.80;10.55;;;;;;;22.02;67.18;100701.34;1764037;80;21070;-48
2022/07/01 02:27:36;;;;;;;13.88;9.68;;;;;;;22.04;67.25;100699.30;1771134;80;21140;-48
2022/07/01 02:30:06;;;;;;;14.35;9.15;;;;;;;22.04;67.44;100691.27;1766629;80;21006;-48
2022/07/01 02:32:33;;;;;;;11.33;9.10;;;;;;;22.10;67.77;100692.34;1766739;80;21505;-48
2022/07/01 02:34:59;;;;;;;13.00;9.70;;;;;;;22.18;67.83;100694.08;1713113;82;21557;-48
2022/07/01 02:37:27;;;;;;;12.03;9.28;;;;;;;22.20;67.80;100694.19;1718826;82;21070;-48
2022/07/01 02:39:54;;;;;;;10.58;9.50;;;;;;;22.19;67.96;100697.05;1710296;82;21097;-48
2022/07/01 02:42:23;;;;;;;10.85;8.30;;;;;;;22.18;67.98;100694.08;1715230;83;21066;-48
2022/07/01 02:44:49;;;;;;;10.15;9.10;;;;;;;22.15;68.07;100693.11;1718872;83;21086;-48
2022/07/01 02:47:16;;;;;;;11.05;8.53;;;;;;;22.16;68.18;100694.78;1706484;82;21066;-48
2022/07/01 02:49:42;;;;;;;10.00;8.83;;;;;;;22.21;68.00;100697.20;1709805;82;21106;-49
2022/07/01 02:52:09;;;;;;;11.55;9.45;;;;;;;22.24;67.94;100697.31;1709066;82;22870;-48
2022/07/01 02:54:36;;;;;;;10.90;9.13;;;;;;;22.27;67.88;100706.31;1711726;83;21071;-48
2022/07/01 02:57:03;;;;;;;11.45;9.88;;;;;;;22.25;67.83;100706.50;1722637;83;21050;-48
2022/07/01 02:59:30;;;;;;;13.00;10.00;;;;;;;22.23;67.80;100706.39;1711681;83;21110;-50
2022/07/01 03:01:56;;;;;;;11.05;9.10;;;;;;;22.20;67.60;100706.77;1702828;83;21050;-48
2022/07/01 03:04:23;;;;;;;12.25;10.38;;;;;;;22.15;67.43;100707.33;1708709;83;21147;-48
2022/07/01 03:06:49;;;;;;;9.95;8.90;;;;;;;22.14;67.33;100707.03;1733177;82;21564;-49
2022/07/01 03:09:16;;;;;;;10.65;9.55;;;;;;;22.17;67.21;100701.78;1771420;80;21579;-48
2022/07/01 03:11:43;;;;;;;11.03;9.38;;;;;;;22.23;67.16;100710.41;1771412;80;21066;-48
2022/07/01 03:14:10;;;;;;;11.65;10.45;;;;;;;22.28;67.06;100716.55;1764141;80;21126;-49
2022/07/01 03:16:36;;;;;;;11.93;10.00;;;;;;;22.29;67.00;100710.17;1751297;80;22091;-49
2022/07/01 03:19:03;;;;;;;10.75;9.65;;;;;;;22.34;66.96;100711.77;1764293;80;21605;-49
2022/07/01 03:21:30;;;;;;;13.15;9.75;;;;;;;22.34;66.97;100713.95;1754549;80;21460;-48
2022/07/01 03:23:57;;;;;;;11.10;9.85;;;;;;;22.35;67.11;100719.62;1763409;80;21582;-48
2022/07/01 03:26:23;;;;;;;12.63;9.88;;;;;;;22.38;67.16;100716.56;1764163;80;21790;-48
2022/07/01 03:28:50;;;;;;;11.60;10.03;;;;;;;22.48;67.04;100718.06;1752302;80;21131;-49
2022/07/01 03:31:16;;;;;;;11.40;9.13;;;;;;;22.52;66.73;100717.49;1752208;80;21048;-48
2022/07/01 03:33:43;;;;;;;11.45;8.40;;;;;;;22.55;66.31;100710.93;1762721;79;21034;-48
2022/07/01 03:36:09;;;;;;;10.68;9.35;;;;;;;22.54;66.02;100717.30;1761100;79;21060;-48
2022/07/01 03:38:37;;;;;;;11.95;9.75;;;;;;;22.50;65.62;100718.73;1763542;80;21106;-48
2022/07/01 03:41:03;;;;;;;12.50;10.32;;;;;;;22.50;65.88;100721.41;1760014;80;21227;-49
2022/07/01 03:43:30;;;;;;;11.75;9.63;;;;;;;22.57;66.00;100720.42;1761648;80;21055;-48
2022/07/01 03:45:57;;;;;;;11.03;9.40;;;;;;;22.67;65.83;100720.62;1761411;80;21125;-48
2022/07/01 03:48:25;;;;;;;11.20;9.35;;;;;;;22.72;66.10;100716.31;1754477;80;21452;-48
2022/07/01 03:50:52;;;;;;;10.70;9.58;;;;;;;22.80;66.38;100726.91;1759214;80;21128;-48
2022/07/01 03:56:04;;;;;;;9.90;8.85;;;;;;;22.93;65.15;100719.97;1759562;79;21626;-48
2022/07/01 03:58:30;;;;;;;9.75;8.23;;;;;;;22.98;64.65;100722.89;1755973;79;22287;-48
2022/07/01 04:00:57;;;;;;;9.33;8.20;;;;;;;22.96;64.27;100720.92;1762804;79;20991;-50
2022/07/01 04:03:23;;;;;;;10.82;8.68;;;;;;;22.91;64.13;100723.36;1773795;80;21723;-48
2022/07/01 04:05:50;;;;;;;10.48;9.05;;;;;;;22.88;64.31;100725.94;1773025;80;21074;-48
2022/07/01 04:08:17;;;;;;;9.20;7.95;;;;;;;22.89;64.45;100718.71;1745871;80;21055;-49
2022/07/01 04:10:44;;;;;;;10.43;8.13;;;;;;;22.91;64.37;100723.36;1769869;80;21019;-49
2022/07/01 04:13:10;;;;;;;10.08;8.53;;;;;;;22.94;64.43;100727.00;1758287;80;21054;-49
2022/07/01 04:15:37;;;;;;;8.70;7.45;;;;;;;22.97;64.53;100719.91;1753611;80;21123;-48
2022/07/01 04:18:04;;;;;;;10.43;8.18;;;;;;;23.04;64.45;100728.82;1744312;80;21127;-47
2022/07/01 04:20:31;;;;;;;8.85;7.28;;;;;;;23.12;64.51;100730.56;1755983;80;21324;-48
2022/07/01 04:22:57;;;;;;;11.73;8.30;;;;;;;23.17;64.20;100733.48;1762406;80;21066;-48
2022/07/01 04:25:25;;;;;;;9.85;8.63;;;;;;;23.24;64.29;100736.21;1754005;80;21655;-48
2022/07/01 04:27:51;;;;;;;10.60;8.48;;;;;;;23.35;64.09;100742.34;1753256;80;21074;-48
2022/07/01 04:30:18;;;;;;;9.30;8.28;;;;;;;23.40;64.25;100739.89;1757574;80;21134;-48
2022/07/01 04:32:44;;;;;;;9.70;8.70;;;;;;;23.40;64.47;100742.58;1770910;80;21039;-49
2022/07/01 04:35:12;;;;;;;11.08;9.03;;;;;;;23.41;64.80;100741.56;1769685;80;21122;-49
2022/07/01 04:37:41;;;;;;;11.22;8.60;;;;;;;23.46;65.00;100744.48;1756550;79;21593;-48
2022/07/01 04:40:08;;;;;;;10.10;8.53;;;;;;;23.52;64.94;100743.69;1768646;80;21615;-49
2022/07/01 04:42:35;;;;;;;10.28;8.45;;;;;;;23.67;64.64;100736.84;1749503;80;22057;-48
2022/07/01 04:45:03;;;;;;;12.35;8.93;;;;;;;23.79;64.18;100745.14;1766094;80;21545;-48
2022/07/01 04:47:32;;;;;;;11.45;9.00;;;;;;;23.82;64.15;100737.21;1716791;82;21059;-48
2022/07/01 04:50:01;;;;;;;11.33;10.08;;;;;;;23.85;63.74;100741.66;1759808;80;21605;-48
2022/07/01 04:52:27;;;;;;;13.43;9.45;;;;;;;23.89;63.13;100746.14;1762026;80;21063;-48
2022/07/01 04:54:54;;;;;;;10.48;8.80;;;;;;;23.93;63.22;100744.17;1745642;80;21215;-49
2022/07/01 04:57:20;;;;;;;10.13;8.95;;;;;;;24.10;63.53;100745.97;1744396;80;21039;-48
2022/07/01 04:59:47;;;;;;;11.08;8.63;;;;;;;24.27;62.44;100740.22;1747059;80;21536;-48
2022/07/01 05:02:13;;;;;;;11.00;9.40;;;;;;;24.41;61.76;100741.91;1689331;82;21134;-48
2022/07/01 05:04:40;;;;;;;11.38;9.70;;;;;;;24.53;61.23;100739.92;1730717;82;21130;-48
2022/07/01 05:07:06;;;;;;;10.50;8.25;;;;;;;24.65;60.79;100739.67;1755135;80;21134;-48
2022/07/01 05:09:35;;;;;;;10.68;8.88;;;;;;;24.71;60.51;100742.86;1762614;79;21007;-48
2022/07/01 05:12:05;;;;;;;9.83;8.83;;;;;;;24.76;60.51;100739.55;1754104;80;21031;-48
2022/07/01 05:14:34;;;;;;;15.40;10.38;;;;;;;24.74;60.29;100742.97;1752842;80;21047;-48
2022/07/01 05:17:00;;;;;;;13.98;9.33;;;;;;;24.75;60.38;100742.77;1758106;80;21016;-48
2022/07/01 05:22:11;;;;;;;9.95;8.60;;;;;;;24.85;59.68;100742.35;1765287;80;21047;-48
2022/07/01 05:24:38;;;;;;;10.50;8.38;;;;;;;24.87;60.26;100752.39;1765926;79;21101;-48
2022/07/01 05:27:06;;;;;;;11.83;8.85;;;;;;;24.93;60.10;100745.33;1751597;80;21550;-48
2022/07/01 05:29:32;;;;;;;11.20;9.35;;;;;;;25.03;59.92;100750.61;1746346;80;21074;-48
2022/07/01 05:31:59;;;;;;;10.18;8.80;;;;;;;25.09;59.78;100742.73;1756681;80;21109;-48
2022/07/01 05:34:25;;;;;;;9.60;8.60;;;;;;;25.10;59.59;100752.45;1757264;80;21038;-48
2022/07/01 05:36:52;;;;;;;10.80;8.35;;;;;;;25.14;58.39;100748.31;1765078;80;21030;-48
2022/07/01 05:39:19;;;;;;;10.98;8.60;;;;;;;25.18;58.36;100753.57;1773727;80;21125;-48
2022/07/01 05:41:45;;;;;;;9.83;7.12;;;;;;;25.23;58.38;100748.38;1756345;80;21046;-48
2022/07/01 05:44:12;;;;;;;7.97;6.55;;;;;;;25.33;56.53;100752.84;1743681;80;21216;-47
2022/07/01 05:46:38;;;;;;;8.70;6.62;;;;;;;25.37;55.87;100747.35;1747475;80;22934;-48
2022/07/01 05:49:05;;;;;;;8.80;7.33;;;;;;;25.42;56.24;100743.18;1766612;80;21059;-48
2022/07/01 05:51:32;;;;;;;9.03;6.33;;;;;;;25.46;56.55;100747.12;1743773;80;21039;-48
2022/07/01 05:53:59;;;;;;;9.58;6.40;;;;;;;25.51;56.85;100744.09;1705374;84;21092;-48
2022/07/01 05:56:25;;;;;;;8.50;6.80;;;;;;;25.52;57.12;100746.25;1769414;80;21115;-48
2022/07/01 05:58:54;;;;;;;9.00;6.58;;;;;;;25.53;56.94;100740.66;1772388;80;21019;-49
2022/07/01 06:01:20;;;;;;;8.38;6.72;;;;;;;25.55;57.20;100737.75;1753410;80;21058;-48
2022/07/01 06:03:46;;;;;;;8.03;6.47;;;;;;;25.60;57.46;100741.97;1753087;79;21047;-48
2022/07/01 06:06:13;;;;;;;8.48;6.85;;;;;;;25.64;57.12;100740.52;1747644;80;21585;-48
2022/07/01 06:08:40;;;;;;;9.10;5.90;;;;;;;25.70;57.13;100736.13;1770813;80;21763;-48
2022/07/01 06:11:08;;;;;;;6.10;4.60;;;;;;;25.81;56.11;100734.66;1779164;80;21062;-48
2022/07/01 06:13:34;;;;;;;8.60;5.10;;;;;;;25.88;54.12;100736.78;1756663;80;21102;-48
2022/07/01 06:16:01;;;;;;;8.28;6.25;;;;;;;25.91;53.58;100726.39;1759539;80;21067;-49
2022/07/01 06:18:27;;;;;;;7.80;5.50;;;;;;;26.00;53.52;100728.33;1759639;80;21008;-48
2022/07/01 06:20:54;;;;;;;8.95;5.12;;;;;;;26.09;53.58;100727.05;1752143;79;21144;-48
2022/07/01 06:23:21;;;;;;;6.42;5.30;;;;;;;26.18;52.65;100726.80;1774441;80;21032;-49
2022/07/01 06:25:47;;;;;;;7.70;5.37;;;;;;;26.25;52.29;100720.83;1762989;80;21106;-47
2022/07/01 06:28:14;;;;;;;7.10;4.90;;;;;;;26.30;52.76;100727.20;1779332;80;21078;-48
2022/07/01 06:30:43;;;;;;;6.45;5.20;;;;;;;26.34;51.87;100730.28;1766787;80;21127;-49
2022/07/01 06:33:11;;;;;;;7.87;5.60;;;;;;;26.38;52.29;100730.17;1709220;82;21981;-48
2022/07/01 06:35:37;;;;;;;7.20;5.30;;;;;;;26.48;52.50;100725.11;1771608;79;21032;-48
2022/07/01 06:38:04;;;;;;;6.58;4.70;;;;;;;26.62;52.94;100719.59;1770227;79;21038;-49
2022/07/01 06:40:31;;;;;;;6.50;5.03;;;;;;;26.76;51.88;100717.09;1778255;80;21058;-48
2022/07/01 06:42:57;;;;;;;7.92;4.90;;;;;;;26.88;49.96;100715.34;1752626;80;21073;-50
2022/07/01 06:45:24;;;;;;;7.22;5.42;;;;;;;26.94;49.50;100716.84;1761480;79;21132;-48
2022/07/01 06:47:50;;;;;;;7.95;5.53;;;;;;;27.00;49.33;100709.17;1773781;80;21223;-48
2022/07/01 06:50:17;;;;;;;7.75;5.40;;;;;;;27.10;49.34;100715.42;1753053;80;21019;-48
2022/07/01 06:52:43;;;;;;;11.10;5.20;;;;;;;27.17;49.26;100709.44;1766815;79;21101;-48
2022/07/01 06:55:10;;;;;;;7.62;5.62;;;;;;;27.22;49.53;100702.30;1775000;80;21085;-48
2022/07/01 06:57:37;;;;;;;8.68;5.45;;;;;;;27.21;50.20;100707.39;1761659;80;21251;-50
2022/07/01 07:00:05;;;;;;;7.62;5.62;;;;;;;27.22;50.68;100706.89;1775556;79;21658;-48
2022/07/01 07:02:31;;;;;;;8.18;5.10;;;;;;;27.22;50.13;100710.94;1763035;80;21135;-48
2022/07/01 07:04:58;;;;;;;8.18;5.40;;;;;;;27.21;49.26;100708.73;1764957;80;21533;-48
2022/07/01 07:07:25;;;;;;;8.95;4.75;;;;;;;27.23;49.14;100712.57;1761234;80;21101;-48
2022/07/01 07:09:51;;;;;;;6.83;4.58;;;;;;;27.22;48.29;100709.59;1754972;80;21094;-48
2022/07/01 07:12:18;;;;;;;6.80;4.47;;;;;;;27.22;47.91;100706.89;1751140;80;21039;-48
2022/07/01 07:14:46;;;;;;;7.30;5.03;;;;;;;27.22;48.06;100702.83;1750170;80;21111;-48
2022/07/01 07:17:12;;;;;;;9.25;5.60;;;;;;;27.27;48.01;100704.83;1752413;80;21130;-48
2022/07/01 07:19:39;;;;;;;7.03;5.40;;;;;;;27.27;47.71;100695.38;1698871;83;21052;-48
2022/07/01 07:22:06;;;;;;;8.10;5.03;;;;;;;27.29;48.23;100698.73;1750032;80;21127;-48
2022/07/01 07:24:32;;;;;;;9.75;6.47;;;;;;;27.30;48.44;100700.37;1756239;80;21510;-48
2022/07/01 07:26:59;;;;;;;7.15;5.90;;;;;;;27.33;48.69;100698.57;1744889;80;21062;-48
2022/07/01 07:29:26;;;;;;;9.43;5.80;;;;;;;27.36;49.06;100699.47;1752356;80;21083;-48
2022/07/01 07:31:52;;;;;;;7.65;5.65;;;;;;;27.38;49.23;100700.06;1751356;80;21007;-48
2022/07/01 07:34:19;;;;;;;8.48;6.33;;;;;;;27.39;49.19;100700.38;1756847;80;21305;-48
2022/07/01 07:36:46;;;;;;;8.10;6.42;;;;;;;27.38;48.92;100703.58;1754334;80;21086;-48
2022/07/01 07:39:12;;;;;;;9.00;6.05;;;;;;;27.39;49.05;100699.84;1753010;80;21043;-49
2022/07/01 07:41:39;;;;;;;8.90;6.30;;;;;;;27.43;49.26;100696.97;1743803;80;21079;-49
2022/07/01 07:44:05;;;;;;;9.70;6.97;;;;;;;27.51;49.32;100697.73;1751238;80;21163;-48
2022/07/01 07:46:32;;;;;;;7.92;6.50;;;;;;;27.58;49.20;100695.23;1754777;80;21140;-48
2022/07/01 07:48:58;;;;;;;7.87;5.95;;;;;;;27.65;49.00;100695.67;1746039;79;20997;-49
2022/07/01 07:51:26;;;;;;;8.03;6.85;;;;;;;27.69;48.82;100692.80;1752680;80;21085;-48
2022/07/01 07:53:52;;;;;;;8.85;6.60;;;;;;;27.75;48.46;100693.24;1760638;80;21142;-48
2022/07/01 07:56:19;;;;;;;8.73;6.65;;;;;;;27.85;48.37;100687.29;1750832;80;21039;-48
2022/07/01 07:58:45;;;;;;;9.45;6.12;;;;;;;27.96;48.33;100686.54;1752323;80;21188;-49
2022/07/01 08:01:12;;;;;;;9.35;6.15;;;;;;;28.03;46.75;100684.55;1754794;80;21032;-48
2022/07/01 08:03:38;;;;;;;12.63;6.55;;;;;;;28.05;46.21;100674.32;1695554;82;21066;-49
2022/07/01 08:06:05;;;;;;;9.38;6.35;;;;;;;28.05;46.34;100682.44;1753672;80;21087;-49
2022/07/01 08:08:32;;;;;;;7.00;6.08;;;;;;;28.01;46.84;100680.41;1749949;80;21069;-48
2022/07/01 08:10:59;;;;;;;9.53;6.72;;;;;;;28.01;46.57;100669.59;1754493;80;21071;-48
2022/07/01 08:13:26;;;;;;;9.03;6.42;;;;;;;28.01;45.82;100675.00;1762815;80;21003;-48
2022/07/01 08:15:55;;;;;;;8.90;6.53;;;;;;;27.98;46.11;100671.72;1760810;80;21064;-48
2022/07/01 08:18:22;;;;;;;10.15;6.45;;;;;;;28.00;45.98;100667.43;1732568;80;21113;-47
2022/07/01 08:20:52;;;;;;;7.25;5.58;;;;;;;28.05;44.67;100668.91;1762588;79;21142;-49
2022/07/01 08:23:17;;;;;;;7.42;6.03;;;;;;;28.10;45.73;100669.58;1754638;80;21222;-48
2022/07/01 08:25:44;;;;;;;8.95;5.97;;;;;;;28.17;45.54;100668.93;1754025;80;21052;-49
2022/07/01 08:28:12;;;;;;;8.80;6.33;;;;;;;28.24;45.76;100669.64;1760442;80;21034;-50
2022/07/01 08:30:39;;;;;;;6.75;5.87;;;;;;;28.31;44.17;100671.73;1753715;79;21004;-48
2022/07/01 08:33:05;;;;;;;8.53;6.00;;;;;;;28.36;44.21;100666.95;1762238;80;21015;-49
2022/07/01 08:35:31;;;;;;;7.22;6.33;;;;;;;28.39;44.36;100664.31;1766093;80;21138;-48
2022/07/01 08:37:58;;;;;;;10.10;6.37;;;;;;;28.39;44.20;100665.67;1764184;80;21410;-48
2022/07/01 08:40:28;;;;;;;8.40;6.30;;;;;;;28.41;44.56;100668.95;1765477;80;21056;-48
2022/07/01 08:43:03;;;;;;;7.42;6.05;;;;;;;28.45;44.71;100664.73;1721219;82;21079;-48
2022/07/01 08:45:32;;;;;;;7.17;6.47;;;;;;;28.50;44.57;100666.21;1759871;80;21121;-49
2022/07/01 08:48:00;;;;;;;8.58;5.85;;;;;;;28.51;44.48;100660.56;1756031;80;21148;-48
2022/07/01 08:50:33;;;;;;;8.18;5.37;;;;;;;28.57;45.23;100658.81;1758146;79;21076;-49
2022/07/01 08:53:00;;;;;;;7.47;6.25;;;;;;;28.64;44.70;100661.41;1763642;80;21091;-48
2022/07/01 08:55:27;;;;;;;7.12;5.70;;;;;;;28.69;44.46;100659.62;1762373;80;21007;-48
2022/07/01 08:57:54;;;;;;;8.48;6.08;;;;;;;28.72;44.75;100655.09;1760421;80;21038;-48
2022/07/01 09:00:20;;;;;;;9.18;5.80;;;;;;;28.75;44.45;100662.45;1768703;79;21235;-48
2022/07/01 09:02:58;;;;;;;8.03;6.65;;;;;;;28.74;44.39;100662.17;1758578;80;21081;-48
2022/07/01 09:05:27;;;;;;;11.08;6.55;;;;;;;28.72;43.70;100663.22;1709470;82;21065;-48
2022/07/01 09:08:02;;;;;;;6.50;5.47;;;;;;;28.72;43.85;100658.34;1762754;80;21004;-49
2022/07/01 09:10:34;;;;;;;6.47;5.45;;;;;;;28.74;44.63;100660.81;1753288;79;21627;-48
2022/07/01 09:13:08;;;;;;;7.90;5.70;;;;;;;28.75;43.71;100658.39;1753696;80;21158;-47
2022/07/01 09:15:35;;;;;;;7.20;5.90;;;;;;;28.79;42.85;100655.52;1678597;82;21089;-48
2022/07/01 09:18:16;;;;;;;7.45;5.30;;;;;;;28.81;40.93;100649.33;1745189;80;21676;-49
2022/07/01 09:20:47;;;;;;;6.40;5.40;;;;;;;28.81;40.70;100649.33;1755577;80;21042;-48
2022/07/01 09:23:18;;;;;;;6.45;5.08;;;;;;;28.84;40.92;100646.96;1751465;80;21114;-48
2022/07/01 09:25:47;;;;;;;6.62;5.25;;;;;;;28.88;40.70;100646.80;1752334;79;21107;-48
2022/07/01 09:28:20;;;;;;;9.90;6.12;;;;;;;28.91;41.00;100648.19;1752197;80;21011;-48
2022/07/01 09:30:50;;;;;;;7.20;5.12;;;;;;;28.93;41.43;100645.24;1768892;80;21051;-48
2022/07/01 09:33:21;;;;;;;7.85;6.30;;;;;;;28.96;42.02;100649.64;1767166;80;21106;-48
2022/07/01 09:35:51;;;;;;;8.23;5.90;;;;;;;29.01;41.98;100647.05;1751041;80;21459;-48
2022/07/01 09:38:20;;;;;;;6.37;5.25;;;;;;;29.04;41.82;100644.41;1742334;80;21316;-48
2022/07/01 09:40:57;;;;;;;7.12;5.03;;;;;;;29.03;41.43;100638.17;1691226;82;21060;-48
2022/07/01 09:43:29;;;;;;;7.53;5.55;;;;;;;29.07;40.35;100631.20;1746581;80;21086;-47
2022/07/01 09:46:09;;;;;;;7.62;5.58;;;;;;;29.09;39.38;100637.19;1744836;79;21004;-48
2022/07/01 09:48:41;;;;;;;6.80;5.35;;;;;;;29.09;40.32;100638.55;1760239;80;21081;-47
2022/07/01 09:51:09;;;;;;;8.38;6.00;;;;;;;29.13;40.53;100640.78;1750324;80;22867;-47
2022/07/01 09:53:38;;;;;;;6.72;5.40;;;;;;;29.16;40.56;100634.89;1754107;80;21026;-47
2022/07/01 09:56:05;;;;;;;7.50;5.83;;;;;;;29.20;39.86;100633.36;1758215;80;21039;-48
2022/07/01 09:58:33;;;;;;;8.65;5.75;;;;;;;29.30;40.79;100634.10;1758343;80;21523;-47
2022/07/01 10:00:59;;;;;;;9.40;5.60;;;;;;;29.32;41.76;100630.09;1749030;80;21034;-47
2022/07/01 10:03:26;;;;;;;9.50;5.62;;;;;;;29.20;41.22;100640.14;1751777;80;21999;-47
2022/07/01 10:06:31;;;;;;;6.95;5.37;;;;;;;29.04;41.55;100638.98;1755916;80;21035;-47
2022/07/01 10:09:25;;;;;;;8.38;5.47;;;;;;;28.91;42.08;100635.45;1749337;80;21018;-47
2022/07/01 10:12:18;;;;;;;9.93;5.53;;;;;;;28.89;42.25;100628.65;1762553;80;21062;-47
2022/07/01 10:14:45;;;;;;;7.85;5.97;;;;;;;28.98;41.67;100628.55;1748889;80;21051;-47
2022/07/01 10:17:28;;;;;;;8.30;5.67;;;;;;;29.10;41.33;100624.46;1752820;80;21111;-47
2022/07/01 10:19:56;;;;;;;7.70;5.40;;;;;;;29.21;41.49;100620.93;1756110;80;21003;-47
2022/07/01 10:22:29;;;;;;;6.17;4.72;;;;;;;29.38;39.92;100618.81;1744970;80;21566;-47
2022/07/01 10:25:17;;;;;;;7.25;5.10;;;;;;;29.51;39.98;100615.00;1763059;80;21581;-47
2022/07/01 10:27:43;;;;;;;7.45;4.85;;;;;;;29.62;40.70;100616.80;1738893;80;21619;-47
2022/07/01 10:30:15;;;;;;;6.10;4.80;;;;;;;29.68;40.90;100619.09;1756640;79;21236;-47
2022/07/01 10:32:48;;;;;;;7.78;5.25;;;;;;;29.68;38.61;100615.02;1711087;82;21012;-47
2022/07/01 10:35:14;;;;;;;7.92;5.42;;;;;;;29.69;39.45;100608.52;1749381;80;21107;-47
2022/07/01 10:38:00;;;;;;;7.20;5.58;;;;;;;29.71;40.08;100614.54;1754705;80;21031;-47
2022/07/01 10:40:48;;;;;;;10.32;5.97;;;;;;;29.73;40.51;100613.20;1743565;80;21016;-49
2022/07/01 10:43:18;;;;;;;6.55;5.05;;;;;;;29.77;40.10;100613.56;1763091;80;22264;-47
2022/07/01 10:45:44;;;;;;;6.62;4.80;;;;;;;29.78;40.41;100608.45;1752154;80;21050;-47
2022/07/01 10:48:20;;;;;;;6.10;4.70;;;;;;;29.78;40.59;100610.62;1755170;80;21056;-47
2022/07/01 10:50:47;;;;;;;10.25;4.60;;;;;;;29.78;40.70;100607.91;1755608;80;21072;-47
2022/07/01 10:53:14;;;;;;;6.85;4.92;;;;;;;29.79;39.58;100601.42;1757262;80;21090;-47
2022/07/01 10:55:47;;;;;;;8.00;4.42;;;;;;;29.78;39.47;100601.67;1767130;80;21044;-49
2022/07/01 10:58:14;;;;;;;5.70;3.87;;;;;;;29.76;40.10;100596.45;1749535;80;21034;-47
2022/07/01 11:00:44;;;;;;;5.78;4.15;;;;;;;29.82;41.00;100601.45;1739523;80;21147;-48
2022/07/01 11:03:22;;;;;;;7.35;4.80;;;;;;;29.90;41.10;100599.69;1765876;80;21055;-47
2022/07/01 11:05:52;;;;;;;6.60;4.80;;;;;;;29.97;39.35;100595.45;1751862;80;21062;-47
2022/07/01 11:08:19;;;;;;;6.00;4.25;;;;;;;30.03;39.64;100592.28;1758253;80;21864;-47
2022/07/01 11:10:52;;;;;;;7.95;4.22;;;;;;;30.14;39.43;100592.73;1751711;80;21561;-47
2022/07/01 11:13:19;;;;;;;5.25;4.10;;;;;;;30.29;38.15;100591.60;1737699;81;21055;-47
2022/07/01 11:15:47;;;;;;;10.82;5.08;;;;;;;30.40;37.66;100588.55;1751488;81;21499;-50
2022/07/01 11:18:15;;;;;;;5.70;4.05;;;;;;;30.48;37.64;100583.20;1755770;81;21121;-47
2022/07/01 11:20:42;;;;;;;5.58;3.55;;;;;;;30.56;38.18;100593.13;1743506;81;21114;-47
2022/07/01 11:23:09;;;;;;;6.10;4.25;;;;;;;30.57;37.77;100596.66;1743978;81;21075;-47
2022/07/01 11:25:36;;;;;;;7.62;3.85;;;;;;;30.58;37.57;100594.75;1761780;81;20984;-48
2022/07/01 11:28:03;;;;;;;6.67;3.83;;;;;;;30.57;37.26;100587.14;1757722;80;21090;-47
2022/07/01 11:30:30;;;;;;;6.20;4.03;;;;;;;30.59;37.43;100587.71;1758360;79;21620;-52
2022/07/01 11:32:58;;;;;;;6.80;3.98;;;;;;;30.63;37.00;100584.80;1756874;79;21060;-48